Time;durP1;ratioP1;P1;durP2;ratioP2;P2;SDS_P1;SDS_P2;PMS_P1;PMS_P2;Temp;Humidity;BMP_temperature;BMP_pressure;BME280_temperature;BME280_humidity;BME280_pressure;Samples;Min_cycle;Max_cycle;Signal;HPM_P1;HPM_P2
2022/03/29 00:01:36;;;;;;;;;;;8.40;84.60;;;;;;5068516;28;19917;-89
2022/03/29 00:04:01;;;;;;;;;;;8.30;84.90;;;;;;5056155;28;19991;-89
2022/03/29 00:06:27;;;;;;;;;;;8.30;83.30;;;;;;5056463;28;19963;-89
2022/03/29 00:08:52;;;;;;;;;;;8.30;82.90;;;;;;5063962;28;20377;-90
2022/03/29 00:11:18;;;;;;;;;;;8.40;82.70;;;;;;5061668;28;19999;-89
2022/03/29 00:13:44;;;;;;;;;;;8.40;83.30;;;;;;5060578;28;20393;-87
2022/03/29 00:16:09;;;;;;;;;;;8.40;83.30;;;;;;5054485;28;20353;-87
2022/03/29 00:18:35;;;;;;;;;;;8.40;84.10;;;;;;5053720;28;19919;-87
2022/03/29 00:21:00;;;;;;;;;;;8.40;84.30;;;;;;5060482;28;19916;-89
2022/03/29 00:23:26;;;;;;;;;;;8.50;83.00;;;;;;5066602;28;19917;-88
2022/03/29 00:25:51;;;;;;;;;;;8.50;82.10;;;;;;5040407;28;19935;-90
2022/03/29 00:28:17;;;;;;;;;;;8.50;81.10;;;;;;5056172;28;19920;-89
2022/03/29 00:30:42;;;;;;;;;;;8.50;80.00;;;;;;5063852;28;19920;-89
2022/03/29 00:33:08;;;;;;;;;;;8.50;79.10;;;;;;5059148;28;19959;-89
2022/03/29 00:35:33;;;;;;;;;;;8.40;78.40;;;;;;5066593;28;20417;-89
2022/03/29 00:38:00;;;;;;;;;;;8.40;79.00;;;;;;5057733;28;19916;-89
2022/03/29 00:40:25;;;;;;;;;;;8.40;81.20;;;;;;5054060;28;19956;-90
2022/03/29 00:42:51;;;;;;;;;;;8.30;81.70;;;;;;5061389;28;19952;-89
2022/03/29 00:45:16;;;;;;;;;;;8.30;83.20;;;;;;5052946;28;19921;-89
2022/03/29 00:47:42;;;;;;;;;;;8.20;84.40;;;;;;5063063;28;19916;-89
2022/03/29 00:50:08;;;;;;;;;;;8.20;84.60;;;;;;5061053;28;19917;-89
2022/03/29 00:52:34;;;;;;;;;;;8.20;84.10;;;;;;5054967;28;20304;-89
2022/03/29 00:55:00;;;;;;;;;;;8.20;85.80;;;;;;5096277;22;19925;-81
2022/03/29 00:57:27;;;;;;;;;;;8.10;86.50;;;;;;5048033;28;19939;-79
2022/03/29 00:59:53;;;;;;;;;;;8.10;87.00;;;;;;5066008;28;19920;-80
2022/03/29 01:02:19;;;;;;;;;;;8.10;87.40;;;;;;5061858;28;19917;-79
2022/03/29 01:04:44;;;;;;;;;;;8.10;88.10;;;;;;5068102;28;20330;-81
2022/03/29 01:07:10;;;;;;;;;;;8.10;86.70;;;;;;5056065;28;19931;-80
2022/03/29 01:09:36;;;;;;;;;;;8.00;85.90;;;;;;5053110;28;19923;-79
2022/03/29 01:12:02;;;;;;;;;;;8.00;85.60;;;;;;5073080;28;19913;-79
2022/03/29 01:14:28;;;;;;;;;;;8.00;87.00;;;;;;5070996;28;20448;-80
2022/03/29 01:19:37;;;;;;;;;;;8.00;86.30;;;;;;5061576;28;19966;-80
2022/03/29 01:22:05;;;;;;;;;;;8.00;86.70;;;;;;5067613;28;20404;-81
2022/03/29 01:24:31;;;;;;;;;;;8.00;86.70;;;;;;5067163;28;19912;-81
2022/03/29 01:26:58;;;;;;;;;;;8.00;87.40;;;;;;5075716;28;19976;-80
2022/03/29 01:29:23;;;;;;;;;;;8.00;88.70;;;;;;5077122;28;19916;-80
2022/03/29 01:31:49;;;;;;;;;;;8.00;87.90;;;;;;5049152;28;20263;-80
2022/03/29 01:34:16;;;;;;;;;;;8.00;88.60;;;;;;5048077;28;19927;-80
2022/03/29 01:36:41;;;;;;;;;;;8.00;89.00;;;;;;5076347;28;19912;-81
2022/03/29 01:39:07;;;;;;;;;;;7.90;89.70;;;;;;5044069;28;19925;-79
2022/03/29 01:41:32;;;;;;;;;;;7.90;90.00;;;;;;5048964;28;19920;-79
2022/03/29 01:43:59;;;;;;;;;;;7.90;89.40;;;;;;5067773;28;19966;-80
2022/03/29 01:46:25;;;;;;;;;;;7.90;90.10;;;;;;5052157;28;20011;-79
2022/03/29 01:48:50;;;;;;;;;;;7.90;90.20;;;;;;5071783;28;19963;-79
2022/03/29 01:51:16;;;;;;;;;;;7.90;89.00;;;;;;5055326;28;19932;-80
2022/03/29 01:53:42;;;;;;;;;;;7.90;89.70;;;;;;5038622;28;19917;-80
2022/03/29 01:56:07;;;;;;;;;;;7.90;90.10;;;;;;5060735;28;19923;-80
2022/03/29 01:58:33;;;;;;;;;;;8.00;90.20;;;;;;5043344;28;19978;-80
2022/03/29 02:00:59;;;;;;;;;;;7.90;89.70;;;;;;5070701;28;20391;-81
2022/03/29 02:03:24;;;;;;;;;;;7.90;90.00;;;;;;5067952;28;19920;-80
2022/03/29 02:05:50;;;;;;;;;;;7.90;89.90;;;;;;5070923;28;19924;-81
2022/03/29 02:08:16;;;;;;;;;;;7.90;90.30;;;;;;5064783;28;20285;-81
2022/03/29 02:10:42;;;;;;;;;;;7.90;90.60;;;;;;5055035;28;19917;-80
2022/03/29 02:13:10;;;;;;;;;;;7.90;90.50;;;;;;5065572;28;19913;-80
2022/03/29 02:15:37;;;;;;;;;;;7.90;89.80;;;;;;5042757;28;19916;-80
2022/03/29 02:18:03;;;;;;;;;;;7.90;89.00;;;;;;5059209;28;19917;-81
2022/03/29 02:20:28;;;;;;;;;;;7.90;90.10;;;;;;5076395;28;20486;-81
2022/03/29 02:22:54;;;;;;;;;;;7.80;91.00;;;;;;5045257;28;19917;-79
2022/03/29 02:25:21;;;;;;;;;;;7.80;90.70;;;;;;5077731;28;19916;-80
2022/03/29 02:27:46;;;;;;;;;;;7.80;90.30;;;;;;5062649;28;19970;-81
2022/03/29 02:30:13;;;;;;;;;;;7.70;90.00;;;;;;5069070;28;19913;-80
2022/03/29 02:32:39;;;;;;;;;;;7.80;90.00;;;;;;5046545;28;19921;-80
2022/03/29 02:35:05;;;;;;;;;;;7.80;89.70;;;;;;5066293;28;19920;-79
2022/03/29 02:37:30;;;;;;;;;;;7.80;88.90;;;;;;5051791;28;19917;-80
2022/03/29 02:39:56;;;;;;;;;;;7.80;88.80;;;;;;5050130;28;20035;-79
2022/03/29 02:42:21;;;;;;;;;;;7.80;89.50;;;;;;5060213;28;20442;-80
2022/03/29 02:44:47;;;;;;;;;;;7.80;90.00;;;;;;5073846;28;20015;-81
2022/03/29 02:47:13;;;;;;;;;;;7.80;90.10;;;;;;5045678;28;19925;-81
2022/03/29 02:49:38;;;;;;;;;;;7.70;90.40;;;;;;5047318;28;20279;-80
2022/03/29 02:52:04;;;;;;;;;;;7.70;90.10;;;;;;5062336;28;20007;-79
2022/03/29 02:54:30;;;;;;;;;;;7.70;90.40;;;;;;5075022;28;19917;-80
2022/03/29 02:56:56;;;;;;;;;;;7.60;91.30;;;;;;5070153;28;19916;-80
2022/03/29 02:59:21;;;;;;;;;;;7.60;91.60;;;;;;5047415;28;20776;-80
2022/03/29 03:01:47;;;;;;;;;;;7.50;92.00;;;;;;5046528;28;19916;-79
2022/03/29 03:04:13;;;;;;;;;;;7.50;92.90;;;;;;5067465;28;20287;-80
2022/03/29 03:06:42;;;;;;;;;;;7.40;93.10;;;;;;5052881;28;20547;-80
2022/03/29 03:09:08;;;;;;;;;;;7.30;93.30;;;;;;5065372;28;19919;-80
2022/03/29 03:11:35;;;;;;;;;;;7.30;94.70;;;;;;5063142;28;19917;-80
2022/03/29 03:14:00;;;;;;;;;;;7.20;94.70;;;;;;5043145;28;19917;-80
2022/03/29 03:16:26;;;;;;;;;;;7.10;94.00;;;;;;5070300;28;19983;-80
2022/03/29 03:18:51;;;;;;;;;;;7.10;93.90;;;;;;5044669;28;19920;-81
2022/03/29 03:21:17;;;;;;;;;;;7.10;94.10;;;;;;5070808;28;19912;-80
2022/03/29 03:23:42;;;;;;;;;;;7.10;94.20;;;;;;5045976;28;19917;-82
2022/03/29 03:26:08;;;;;;;;;;;7.00;94.90;;;;;;5045847;28;19920;-82
2022/03/29 03:28:33;;;;;;;;;;;7.00;94.70;;;;;;5050926;28;19921;-80
2022/03/29 03:30:59;;;;;;;;;;;7.00;94.70;;;;;;5053278;28;19917;-79
2022/03/29 03:33:24;;;;;;;;;;;7.00;95.40;;;;;;5062915;28;20011;-81
2022/03/29 03:35:50;;;;;;;;;;;7.00;95.60;;;;;;5042037;28;20410;-82
2022/03/29 03:38:16;;;;;;;;;;;6.90;95.50;;;;;;5065058;28;19924;-80
2022/03/29 03:40:41;;;;;;;;;;;6.90;95.50;;;;;;5048453;28;19917;-81
2022/03/29 03:43:07;;;;;;;;;;;6.90;95.90;;;;;;5056911;28;19925;-82
2022/03/29 03:45:33;;;;;;;;;;;6.90;95.90;;;;;;5045324;28;19928;-81
2022/03/29 03:47:58;;;;;;;;;;;6.90;95.90;;;;;;5065401;28;19920;-81
2022/03/29 03:50:24;;;;;;;;;;;6.90;96.00;;;;;;5061935;28;19912;-80
2022/03/29 03:52:51;;;;;;;;;;;6.90;96.00;;;;;;5058537;28;19917;-80
2022/03/29 03:55:18;;;;;;;;;;;6.90;96.00;;;;;;5065259;28;19961;-82
2022/03/29 03:57:44;;;;;;;;;;;6.90;96.20;;;;;;5064108;28;20028;-81
2022/03/29 04:00:11;;;;;;;;;;;6.90;96.30;;;;;;5070754;28;19944;-81
2022/03/29 04:02:37;;;;;;;;;;;6.90;97.00;;;;;;5073340;28;19921;-83
2022/03/29 04:05:02;;;;;;;;;;;6.90;96.90;;;;;;5058242;28;19956;-83
2022/03/29 04:07:28;;;;;;;;;;;6.90;96.80;;;;;;5071593;28;19987;-81
2022/03/29 04:09:54;;;;;;;;;;;6.80;96.40;;;;;;5043886;28;19925;-80
2022/03/29 04:12:20;;;;;;;;;;;6.80;96.60;;;;;;5042451;28;20063;-80
2022/03/29 04:14:45;;;;;;;;;;;6.80;96.50;;;;;;5066623;28;19913;-81
2022/03/29 04:17:11;;;;;;;;;;;6.80;96.60;;;;;;5040478;28;19987;-81
2022/03/29 04:19:37;;;;;;;;;;;6.80;96.30;;;;;;5045379;28;19927;-80
2022/03/29 04:22:02;;;;;;;;;;;6.70;96.30;;;;;;5065570;28;19912;-80
2022/03/29 04:24:28;;;;;;;;;;;6.70;96.50;;;;;;5045131;28;20028;-81
2022/03/29 04:26:54;;;;;;;;;;;6.70;96.60;;;;;;5065131;28;19932;-81
2022/03/29 04:29:20;;;;;;;;;;;6.70;96.50;;;;;;5048556;28;19924;-80
2022/03/29 04:31:45;;;;;;;;;;;6.70;96.80;;;;;;5068359;28;20484;-81
2022/03/29 04:34:11;;;;;;;;;;;6.70;97.10;;;;;;5054785;28;19916;-80
2022/03/29 04:36:36;;;;;;;;;;;6.70;97.00;;;;;;5051342;28;20024;-80
2022/03/29 04:39:02;;;;;;;;;;;6.60;96.80;;;;;;5048342;28;19924;-80
2022/03/29 04:41:28;;;;;;;;;;;6.70;96.90;;;;;;5065147;28;20011;-81
2022/03/29 04:43:53;;;;;;;;;;;6.70;96.80;;;;;;5047686;28;20465;-80
2022/03/29 04:46:19;;;;;;;;;;;6.70;96.80;;;;;;5044878;28;19920;-80
2022/03/29 04:48:44;;;;;;;;;;;6.70;97.00;;;;;;5037768;28;19917;-81
2022/03/29 04:51:10;;;;;;;;;;;6.70;96.90;;;;;;5061711;28;19913;-81
2022/03/29 04:53:36;;;;;;;;;;;6.70;96.50;;;;;;5050584;28;19944;-81
2022/03/29 04:56:01;;;;;;;;;;;6.70;96.10;;;;;;5044963;28;19927;-81
2022/03/29 04:58:27;;;;;;;;;;;6.70;95.90;;;;;;5047306;28;20375;-81
2022/03/29 05:00:52;;;;;;;;;;;6.70;96.60;;;;;;5056771;28;20265;-80
2022/03/29 05:03:18;;;;;;;;;;;6.70;97.60;;;;;;5068103;28;20588;-80
2022/03/29 05:05:44;;;;;;;;;;;6.70;97.40;;;;;;5063495;28;20390;-81
2022/03/29 05:08:09;;;;;;;;;;;6.60;97.20;;;;;;5065243;28;19960;-80
2022/03/29 05:10:35;;;;;;;;;;;6.60;97.30;;;;;;5046813;28;19955;-81
2022/03/29 05:13:01;;;;;;;;;;;6.60;97.70;;;;;;5059043;28;19995;-81
2022/03/29 05:15:26;;;;;;;;;;;6.50;98.50;;;;;;5062425;28;19913;-81
2022/03/29 05:17:52;;;;;;;;;;;6.50;98.90;;;;;;5045562;28;19951;-81
2022/03/29 05:20:18;;;;;;;;;;;6.40;99.70;;;;;;5071732;28;20608;-80
2022/03/29 05:22:45;;;;;;;;;;;6.30;99.80;;;;;;5059931;28;19944;-81
2022/03/29 05:25:11;;;;;;;;;;;6.30;99.90;;;;;;5036724;28;19917;-82
2022/03/29 05:27:37;;;;;;;;;;;6.20;99.90;;;;;;5069243;28;19912;-80
2022/03/29 05:30:03;;;;;;;;;;;6.20;99.90;;;;;;5061048;28;20372;-81
2022/03/29 05:32:28;;;;;;;;;;;6.20;99.90;;;;;;5050561;28;20376;-81
2022/03/29 05:34:54;;;;;;;;;;;6.20;99.90;;;;;;5047436;28;19920;-81
2022/03/29 05:37:19;;;;;;;;;;;6.20;99.90;;;;;;5045556;28;19924;-82
2022/03/29 05:39:45;;;;;;;;;;;6.30;99.90;;;;;;5055007;28;19916;-82
2022/03/29 05:42:11;;;;;;;;;;;6.30;99.90;;;;;;5046030;28;20303;-81
2022/03/29 05:44:37;;;;;;;;;;;6.40;99.90;;;;;;5062496;28;19927;-81
2022/03/29 05:49:47;;;;;;;;;;;6.40;99.90;;;;;;5069047;28;19924;-81
2022/03/29 05:52:12;;;;;;;;;;;6.40;99.90;;;;;;5051885;28;19924;-81
2022/03/29 05:54:39;;;;;;;;;;;6.50;99.90;;;;;;5068515;28;19916;-82
2022/03/29 05:57:06;;;;;;;;;;;6.60;99.90;;;;;;5050921;28;19923;-82
2022/03/29 05:59:32;;;;;;;;;;;6.60;99.90;;;;;;5069599;28;19919;-81
2022/03/29 06:02:04;;;;;;;;;;;6.60;99.90;;;;;;5072517;28;19944;-81
2022/03/29 06:04:33;;;;;;;;;;;6.70;99.90;;;;;;5042076;28;19916;-82
2022/03/29 06:06:58;;;;;;;;;;;6.70;99.90;;;;;;5065676;28;19916;-82
2022/03/29 06:09:24;;;;;;;;;;;6.70;99.90;;;;;;5054240;28;19924;-82
2022/03/29 06:11:50;;;;;;;;;;;6.80;99.90;;;;;;5070510;28;20265;-82
2022/03/29 06:14:16;;;;;;;;;;;6.80;99.90;;;;;;5051590;28;20385;-82
2022/03/29 06:16:42;;;;;;;;;;;6.90;99.90;;;;;;5043697;28;19924;-82
2022/03/29 06:19:09;;;;;;;;;;;7.00;99.90;;;;;;5071693;28;19912;-81
2022/03/29 06:21:36;;;;;;;;;;;7.10;99.90;;;;;;5063020;28;19936;-80
2022/03/29 06:24:02;;;;;;;;;;;7.20;99.90;;;;;;5068447;28;19920;-80
2022/03/29 06:26:28;;;;;;;;;;;7.30;99.90;;;;;;5072402;28;19916;-82
2022/03/29 06:28:53;;;;;;;;;;;7.40;99.90;;;;;;5045399;28;19928;-82
2022/03/29 06:31:20;;;;;;;;;;;7.40;99.90;;;;;;5058619;28;20206;-83
2022/03/29 06:33:45;;;;;;;;;;;7.50;99.90;;;;;;5072036;28;20029;-81
2022/03/29 06:36:11;;;;;;;;;;;7.60;99.90;;;;;;5075900;28;19925;-82
2022/03/29 06:38:37;;;;;;;;;;;7.60;99.00;;;;;;5043200;28;19939;-82
2022/03/29 06:41:03;;;;;;;;;;;7.70;99.40;;;;;;5052001;28;19917;-80
2022/03/29 06:43:28;;;;;;;;;;;7.70;98.90;;;;;;5067699;28;20345;-81
2022/03/29 06:45:55;;;;;;;;;;;7.90;99.70;;;;;;5061474;28;19959;-81
2022/03/29 06:48:21;;;;;;;;;;;7.90;98.60;;;;;;5043215;28;19923;-82
2022/03/29 06:50:46;;;;;;;;;;;8.10;97.80;;;;;;5045412;28;20014;-81
2022/03/29 06:53:12;;;;;;;;;;;8.20;97.10;;;;;;5047481;28;19964;-80
2022/03/29 06:55:37;;;;;;;;;;;8.30;96.80;;;;;;5056708;23;19925;-83
2022/03/29 06:58:03;;;;;;;;;;;8.40;96.60;;;;;;5049944;28;20288;-84
2022/03/29 07:00:28;;;;;;;;;;;8.50;98.20;;;;;;5047581;28;20403;-83
2022/03/29 07:02:54;;;;;;;;;;;8.60;97.70;;;;;;5046507;28;19917;-84
2022/03/29 07:05:19;;;;;;;;;;;8.80;98.60;;;;;;5040885;28;20621;-84
2022/03/29 07:07:45;;;;;;;;;;;8.90;98.70;;;;;;5036486;28;19917;-83
2022/03/29 07:12:56;;;;;;;;;;;9.20;98.50;;;;;;5038618;28;19924;-85
2022/03/29 07:15:22;;;;;;;;;;;9.40;96.90;;;;;;5029487;28;19968;-85
2022/03/29 07:17:48;;;;;;;;;;;9.50;95.90;;;;;;5041920;28;19925;-85
2022/03/29 07:20:16;;;;;;;;;;;9.70;95.20;;;;;;5038316;28;20015;-85
2022/03/29 07:22:43;;;;;;;;;;;9.90;94.50;;;;;;5050055;28;19913;-85
2022/03/29 07:25:08;;;;;;;;;;;10.10;94.20;;;;;;5048665;28;20339;-86
2022/03/29 07:27:34;;;;;;;;;;;10.20;93.60;;;;;;5046884;28;19928;-85
2022/03/29 07:30:00;;;;;;;;;;;10.40;93.20;;;;;;5035553;28;20281;-85
2022/03/29 07:32:27;;;;;;;;;;;10.60;92.60;;;;;;5045532;28;20284;-85
2022/03/29 07:34:53;;;;;;;;;;;10.80;92.00;;;;;;5035136;28;19913;-86
2022/03/29 07:37:18;;;;;;;;;;;11.00;90.90;;;;;;5047678;28;19923;-87
2022/03/29 07:39:44;;;;;;;;;;;11.20;89.70;;;;;;5038899;28;20370;-85
2022/03/29 07:42:09;;;;;;;;;;;11.40;87.30;;;;;;5031953;28;19920;-85
2022/03/29 07:44:35;;;;;;;;;;;11.60;84.70;;;;;;5034228;28;20397;-85
2022/03/29 07:47:00;;;;;;;;;;;11.80;82.00;;;;;;5047582;28;19960;-85
2022/03/29 07:49:29;;;;;;;;;;;11.90;80.10;;;;;;5048690;28;19947;-86
2022/03/29 07:51:54;;;;;;;;;;;12.10;77.40;;;;;;5049565;28;20055;-87
2022/03/29 07:54:20;;;;;;;;;;;12.10;75.10;;;;;;5051778;28;20389;-86
2022/03/29 07:56:45;;;;;;;;;;;12.20;75.20;;;;;;5053163;28;19921;-86
2022/03/29 07:59:11;;;;;;;;;;;12.30;75.90;;;;;;5052816;28;19940;-86
2022/03/29 08:01:36;;;;;;;;;;;12.40;75.90;;;;;;5051557;28;19921;-85
2022/03/29 08:04:02;;;;;;;;;;;12.50;76.10;;;;;;5053624;28;19917;-85
2022/03/29 08:06:28;;;;;;;;;;;12.60;75.10;;;;;;5051922;28;19924;-85
2022/03/29 08:08:54;;;;;;;;;;;12.70;75.30;;;;;;5052577;28;20023;-83
2022/03/29 08:11:21;;;;;;;;;;;12.90;75.20;;;;;;5035164;28;20208;-83
2022/03/29 08:13:47;;;;;;;;;;;13.00;74.40;;;;;;5052613;28;19917;-83
2022/03/29 08:16:14;;;;;;;;;;;13.20;73.30;;;;;;5052991;28;19974;-85
2022/03/29 08:18:39;;;;;;;;;;;13.30;71.90;;;;;;5051743;28;20400;-84
2022/03/29 08:21:47;;;;;;;;;;;13.40;70.90;;;;;;5052282;28;19913;-84
2022/03/29 08:23:50;;;;;;;;;;;13.60;70.10;;;;;;5053423;28;20304;-84
2022/03/29 08:26:16;;;;;;;;;;;13.70;68.80;;;;;;5053153;28;19913;-84
2022/03/29 08:28:41;;;;;;;;;;;13.80;69.10;;;;;;5035010;28;19923;-83
2022/03/29 08:31:07;;;;;;;;;;;13.90;70.30;;;;;;5052020;28;19913;-83
2022/03/29 08:33:32;;;;;;;;;;;14.00;67.90;;;;;;5052455;28;19935;-83
2022/03/29 08:35:58;;;;;;;;;;;14.10;67.50;;;;;;5051836;28;20061;-83
2022/03/29 08:38:24;;;;;;;;;;;14.20;67.70;;;;;;5052796;28;20392;-84
2022/03/29 08:40:53;;;;;;;;;;;14.30;67.70;;;;;;5053230;28;19912;-83
2022/03/29 08:43:19;;;;;;;;;;;14.40;67.50;;;;;;5051808;28;19920;-83
2022/03/29 08:45:48;;;;;;;;;;;14.50;68.20;;;;;;5051587;28;19913;-83
2022/03/29 08:48:14;;;;;;;;;;;14.60;66.70;;;;;;5052431;28;19921;-86
2022/03/29 08:50:40;;;;;;;;;;;14.70;65.00;;;;;;5053433;28;19917;-83
2022/03/29 08:53:07;;;;;;;;;;;14.80;64.50;;;;;;5052627;28;19920;-84
2022/03/29 08:55:33;;;;;;;;;;;14.90;65.20;;;;;;5052854;28;19924;-83
2022/03/29 08:57:58;;;;;;;;;;;15.00;64.70;;;;;;5051383;28;19999;-83
2022/03/29 09:00:24;;;;;;;;;;;14.90;67.60;;;;;;5050994;28;19916;-84
2022/03/29 09:02:50;;;;;;;;;;;15.00;65.40;;;;;;5051506;28;20015;-83
2022/03/29 09:05:16;;;;;;;;;;;15.10;63.90;;;;;;5051225;28;19909;-85
2022/03/29 09:07:49;;;;;;;;;;;15.20;62.30;;;;;;5051405;28;19917;-84
2022/03/29 09:10:15;;;;;;;;;;;15.30;60.90;;;;;;5052091;28;19912;-83
2022/03/29 09:12:40;;;;;;;;;;;15.30;65.70;;;;;;5052653;28;20381;-83
2022/03/29 09:15:06;;;;;;;;;;;15.40;66.00;;;;;;5052736;28;19913;-85
2022/03/29 09:17:52;;;;;;;;;;;15.50;63.50;;;;;;5052980;28;19909;-85
2022/03/29 09:20:21;;;;;;;;;;;15.60;62.00;;;;;;5051416;28;19944;-84
2022/03/29 09:22:48;;;;;;;;;;;15.70;61.60;;;;;;5051133;28;19960;-84
2022/03/29 09:25:17;;;;;;;;;;;15.80;60.00;;;;;;5052268;28;20142;-83
2022/03/29 09:28:02;;;;;;;;;;;15.90;59.70;;;;;;5052331;28;19909;-84
2022/03/29 09:30:38;;;;;;;;;;;16.00;58.50;;;;;;5051698;28;19954;-83
2022/03/29 09:33:09;;;;;;;;;;;16.10;56.80;;;;;;5051872;28;19943;-83
2022/03/29 09:35:37;;;;;;;;;;;16.20;56.40;;;;;;5050847;28;20319;-83
2022/03/29 09:38:19;;;;;;;;;;;16.30;55.50;;;;;;5051939;28;20266;-85
2022/03/29 09:40:44;;;;;;;;;;;16.30;55.30;;;;;;5052119;28;19924;-82
2022/03/29 09:43:10;;;;;;;;;;;16.30;53.40;;;;;;5052164;28;20137;-83
2022/03/29 09:45:38;;;;;;;;;;;16.30;52.30;;;;;;5050366;28;20300;-83
2022/03/29 09:48:23;;;;;;;;;;;16.30;51.80;;;;;;5052007;28;19913;-83
2022/03/29 09:50:49;;;;;;;;;;;16.30;48.70;;;;;;5051893;28;19915;-84
2022/03/29 09:53:33;;;;;;;;;;;16.40;48.50;;;;;;5051736;28;19912;-83
2022/03/29 09:55:59;;;;;;;;;;;16.40;47.70;;;;;;5050603;28;19916;-83
2022/03/29 09:58:25;;;;;;;;;;;16.40;46.70;;;;;;5050836;28;19913;-83
2022/03/29 10:00:50;;;;;;;;;;;16.50;46.30;;;;;;5051691;28;20301;-83
2022/03/29 10:03:17;;;;;;;;;;;16.40;44.80;;;;;;5050693;28;20392;-83
2022/03/29 10:05:43;;;;;;;;;;;16.40;45.40;;;;;;5051479;28;19974;-83
2022/03/29 10:10:54;;;;;;;;;;;16.60;44.80;;;;;;5051587;28;19923;-86
2022/03/29 10:13:23;;;;;;;;;;;16.80;44.90;;;;;;5050634;28;19916;-83
2022/03/29 10:15:49;;;;;;;;;;;17.00;44.50;;;;;;5049654;28;19912;-83
2022/03/29 10:18:15;;;;;;;;;;;17.10;44.50;;;;;;5047072;28;19916;-83
2022/03/29 10:20:41;;;;;;;;;;;17.30;44.00;;;;;;5039464;28;19917;-83
2022/03/29 10:23:07;;;;;;;;;;;17.30;42.30;;;;;;5043470;28;19920;-83
2022/03/29 10:25:33;;;;;;;;;;;17.40;42.20;;;;;;5044172;28;19966;-83
2022/03/29 10:27:59;;;;;;;;;;;17.40;42.20;;;;;;5046940;28;19920;-84
2022/03/29 10:30:32;;;;;;;;;;;17.30;40.50;;;;;;5033030;28;19913;-83
2022/03/29 10:33:16;;;;;;;;;;;17.30;39.90;;;;;;5037222;28;19982;-84
2022/03/29 10:36:00;;;;;;;;;;;17.30;37.70;;;;;;5038237;28;20007;-84
2022/03/29 10:38:47;;;;;;;;;;;17.40;39.30;;;;;;5044122;28;19916;-84
2022/03/29 10:41:28;;;;;;;;;;;17.50;39.10;;;;;;5045893;28;19929;-84
2022/03/29 10:43:53;;;;;;;;;;;17.60;39.40;;;;;;5042684;28;19928;-84
2022/03/29 10:46:23;;;;;;;;;;;17.60;37.80;;;;;;5050039;28;20296;-84
2022/03/29 10:49:08;;;;;;;;;;;17.60;38.90;;;;;;5048387;28;20034;-84
2022/03/29 10:51:33;;;;;;;;;;;17.50;39.10;;;;;;5049970;28;19917;-84
2022/03/29 10:54:18;;;;;;;;;;;17.40;38.60;;;;;;5050073;28;20407;-84
2022/03/29 10:56:54;;;;;;;;;;;17.30;39.20;;;;;;5049798;28;19925;-84
2022/03/29 10:59:20;;;;;;;;;;;17.40;39.40;;;;;;5047897;28;19923;-84
2022/03/29 11:02:05;;;;;;;;;;;17.50;39.40;;;;;;5048155;28;19917;-84
2022/03/29 11:04:31;;;;;;;;;;;17.60;39.50;;;;;;5049483;28;19944;-84
2022/03/29 11:07:15;;;;;;;;;;;17.70;38.30;;;;;;5049315;28;19930;-84
2022/03/29 11:09:41;;;;;;;;;;;17.80;38.30;;;;;;5049138;28;19921;-84
2022/03/29 11:12:26;;;;;;;;;;;17.90;39.10;;;;;;5041940;28;19924;-84
2022/03/29 11:14:52;;;;;;;;;;;18.00;38.70;;;;;;5049379;28;19919;-84
2022/03/29 11:17:17;;;;;;;;;;;18.20;37.90;;;;;;5049591;28;20370;-85
2022/03/29 11:19:46;;;;;;;;;;;18.30;37.20;;;;;;5033092;28;19921;-84
2022/03/29 11:22:29;;;;;;;;;;;18.30;37.10;;;;;;5037636;28;19924;-85
2022/03/29 11:24:56;;;;;;;;;;;18.30;36.70;;;;;;5030968;28;19959;-84
2022/03/29 11:27:22;;;;;;;;;;;18.30;37.10;;;;;;5041732;28;19924;-84
2022/03/29 11:29:48;;;;;;;;;;;18.20;37.10;;;;;;5048207;28;19917;-84
2022/03/29 11:32:14;;;;;;;;;;;18.20;37.40;;;;;;5048985;28;20371;-84
2022/03/29 11:34:40;;;;;;;;;;;18.30;37.20;;;;;;5049293;28;19921;-84
2022/03/29 11:37:06;;;;;;;;;;;18.30;36.60;;;;;;5048179;28;19923;-84
2022/03/29 11:39:32;;;;;;;;;;;18.30;36.90;;;;;;5032212;28;19967;-84
2022/03/29 11:41:58;;;;;;;;;;;18.20;34.90;;;;;;5040860;28;20644;-84
2022/03/29 11:44:24;;;;;;;;;;;18.20;35.80;;;;;;5033561;28;20003;-84
2022/03/29 11:46:51;;;;;;;;;;;18.20;37.00;;;;;;5033328;28;19925;-84
2022/03/29 11:49:17;;;;;;;;;;;18.30;37.50;;;;;;5041655;28;19913;-83
2022/03/29 11:51:43;;;;;;;;;;;18.50;37.90;;;;;;5047388;28;20620;-84
2022/03/29 11:54:08;;;;;;;;;;;18.50;36.30;;;;;;5032018;28;20035;-84
2022/03/29 11:56:36;;;;;;;;;;;18.60;34.60;;;;;;5038820;28;19956;-83
2022/03/29 11:59:01;;;;;;;;;;;18.50;34.30;;;;;;5044021;28;20024;-84
2022/03/29 12:01:31;;;;;;;;;;;18.40;35.10;;;;;;5048641;28;20015;-84
2022/03/29 12:03:59;;;;;;;;;;;18.30;35.90;;;;;;5049841;28;19909;-84
2022/03/29 12:06:29;;;;;;;;;;;18.30;36.50;;;;;;5049428;28;19975;-83
2022/03/29 12:08:56;;;;;;;;;;;18.30;36.20;;;;;;5048904;28;19912;-84
2022/03/29 12:11:24;;;;;;;;;;;18.50;36.60;;;;;;5049370;28;19928;-84
2022/03/29 12:13:59;;;;;;;;;;;18.60;36.50;;;;;;5049988;28;19916;-84
2022/03/29 12:16:25;;;;;;;;;;;18.60;36.20;;;;;;5049824;28;20434;-84
2022/03/29 12:18:51;;;;;;;;;;;18.50;35.60;;;;;;5049143;28;20457;-84
2022/03/29 12:21:19;;;;;;;;;;;18.50;35.40;;;;;;5049402;28;19999;-84
2022/03/29 12:23:45;;;;;;;;;;;18.50;36.90;;;;;;5049483;28;19920;-84
2022/03/29 12:26:11;;;;;;;;;;;18.60;36.20;;;;;;5049529;28;19917;-83
2022/03/29 12:28:37;;;;;;;;;;;18.70;34.70;;;;;;5049377;28;19913;-84
2022/03/29 12:31:08;;;;;;;;;;;19.00;36.70;;;;;;5049951;28;19932;-84
2022/03/29 12:33:34;;;;;;;;;;;19.10;36.30;;;;;;5049676;28;19966;-84
2022/03/29 12:36:08;;;;;;;;;;;19.10;35.60;;;;;;5049315;28;19913;-84
2022/03/29 12:38:51;;;;;;;;;;;19.00;37.00;;;;;;5047701;28;19917;-84
2022/03/29 12:41:41;;;;;;;;;;;19.00;37.70;;;;;;5051658;28;19913;-84
2022/03/29 12:44:10;;;;;;;;;;;19.10;37.30;;;;;;5036320;28;19924;-84
2022/03/29 12:46:37;;;;;;;;;;;19.10;39.70;;;;;;5047388;28;20019;-83
2022/03/29 12:49:03;;;;;;;;;;;19.00;38.70;;;;;;5047516;28;19984;-83
2022/03/29 12:51:30;;;;;;;;;;;19.00;38.90;;;;;;5039227;28;19913;-84
2022/03/29 12:53:57;;;;;;;;;;;18.90;37.10;;;;;;5051967;28;19913;-84
2022/03/29 12:56:30;;;;;;;;;;;18.90;37.30;;;;;;5062637;22;19936;-83
2022/03/29 12:58:56;;;;;;;;;;;19.00;37.30;;;;;;5057062;28;19917;-82
2022/03/29 13:01:27;;;;;;;;;;;18.90;36.30;;;;;;5070209;28;19923;-82
2022/03/29 13:03:52;;;;;;;;;;;18.80;35.30;;;;;;5067001;28;19975;-83
2022/03/29 13:06:18;;;;;;;;;;;18.60;35.90;;;;;;5075315;28;19929;-83
2022/03/29 13:08:43;;;;;;;;;;;18.40;34.30;;;;;;5070529;28;19917;-82
2022/03/29 13:11:16;;;;;;;;;;;18.30;36.20;;;;;;5078106;28;19920;-82
2022/03/29 13:13:42;;;;;;;;;;;18.10;37.10;;;;;;5077342;28;19995;-82
2022/03/29 13:16:18;;;;;;;;;;;18.10;37.50;;;;;;5071112;28;20478;-83
2022/03/29 13:18:52;;;;;;;;;;;18.00;38.30;;;;;;5077802;28;19913;-83
2022/03/29 13:21:24;;;;;;;;;;;17.90;38.10;;;;;;5071794;28;19920;-83
2022/03/29 13:23:51;;;;;;;;;;;17.80;38.60;;;;;;5072016;28;19917;-83
2022/03/29 13:26:17;;;;;;;;;;;17.70;37.10;;;;;;5040315;28;19917;-83
2022/03/29 13:28:43;;;;;;;;;;;17.60;38.20;;;;;;5063428;28;19919;-83
2022/03/29 13:31:13;;;;;;;;;;;17.50;38.90;;;;;;5081622;28;19992;-83
2022/03/29 13:33:39;;;;;;;;;;;17.40;38.40;;;;;;5081837;28;19913;-83
2022/03/29 13:36:06;;;;;;;;;;;17.40;38.10;;;;;;5081115;28;20274;-83
2022/03/29 13:38:31;;;;;;;;;;;17.30;38.70;;;;;;5080262;28;19908;-83
2022/03/29 13:40:57;;;;;;;;;;;17.30;39.10;;;;;;5080854;28;20392;-82
2022/03/29 13:43:22;;;;;;;;;;;17.30;39.30;;;;;;5062801;28;19913;-82
2022/03/29 13:45:48;;;;;;;;;;;17.30;39.40;;;;;;5087131;28;19939;-83
2022/03/29 13:48:14;;;;;;;;;;;17.30;38.10;;;;;;5079667;28;20358;-83
2022/03/29 13:50:40;;;;;;;;;;;17.20;38.00;;;;;;5081336;28;19916;-83
2022/03/29 13:53:06;;;;;;;;;;;17.20;38.90;;;;;;5094331;28;19909;-83
2022/03/29 13:55:34;;;;;;;;;;;17.20;39.40;;;;;;5094606;28;19912;-82
2022/03/29 13:58:00;;;;;;;;;;;17.10;39.70;;;;;;5074512;28;20368;-82
2022/03/29 14:00:26;;;;;;;;;;;17.10;39.60;;;;;;5076707;28;19912;-82
2022/03/29 14:02:51;;;;;;;;;;;17.00;39.00;;;;;;5077750;28;19913;-81
2022/03/29 14:05:17;;;;;;;;;;;16.90;39.70;;;;;;5078294;28;19922;-82
2022/03/29 14:07:42;;;;;;;;;;;16.90;39.60;;;;;;5078995;28;19939;-82
2022/03/29 14:10:08;;;;;;;;;;;16.90;40.60;;;;;;5077276;28;20022;-82
2022/03/29 14:12:33;;;;;;;;;;;16.80;41.30;;;;;;5079930;28;19909;-82
2022/03/29 14:14:59;;;;;;;;;;;16.70;41.10;;;;;;5078929;28;19916;-82
2022/03/29 14:17:26;;;;;;;;;;;16.70;40.80;;;;;;5078659;28;19912;-82
2022/03/29 14:19:51;;;;;;;;;;;16.60;41.80;;;;;;5077613;28;20407;-82
2022/03/29 14:22:20;;;;;;;;;;;16.50;41.70;;;;;;5078524;28;19995;-82
2022/03/29 14:24:45;;;;;;;;;;;16.30;41.00;;;;;;5078602;28;20384;-83
2022/03/29 14:27:11;;;;;;;;;;;16.30;41.50;;;;;;5078004;28;19920;-82
2022/03/29 14:29:36;;;;;;;;;;;16.20;41.70;;;;;;5076660;28;20379;-82
2022/03/29 14:32:03;;;;;;;;;;;16.10;42.30;;;;;;5075447;28;20518;-82
2022/03/29 14:34:29;;;;;;;;;;;16.00;42.10;;;;;;5062264;28;20019;-82